createdAt,value
2023-03-04T00:00:23.894Z,8.65
2023-03-04T00:02:51.270Z,9.90
2023-03-04T00:05:18.811Z,10.38
2023-03-04T00:07:46.101Z,8.88
2023-03-04T00:10:13.874Z,11.27
2023-03-04T00:12:41.448Z,10.85
2023-03-04T00:15:09.363Z,13.00
2023-03-04T00:17:36.747Z,11.15
2023-03-04T00:20:04.348Z,12.27
2023-03-04T00:22:31.706Z,12.98
2023-03-04T00:24:59.054Z,12.15
2023-03-04T00:27:26.928Z,15.85
2023-03-04T00:29:54.347Z,14.38
2023-03-04T00:32:21.678Z,11.35
2023-03-04T00:34:49.070Z,12.30
2023-03-04T00:37:16.430Z,12.80
2023-03-04T00:39:44.091Z,12.25
2023-03-04T00:42:11.502Z,12.32
2023-03-04T00:44:39.316Z,9.82
2023-03-04T00:47:06.704Z,8.75
2023-03-04T00:49:34.053Z,10.10
2023-03-04T00:52:01.375Z,8.30
2023-03-04T00:54:28.846Z,7.57
2023-03-04T00:56:56.229Z,7.72
2023-03-04T00:59:23.693Z,8.65
2023-03-04T01:01:51.028Z,8.55
2023-03-04T01:04:18.374Z,8.07
2023-03-04T01:06:45.822Z,9.90
2023-03-04T01:09:13.314Z,9.48
2023-03-04T01:11:40.781Z,10.02
2023-03-04T01:14:08.194Z,11.05
2023-03-04T01:16:35.697Z,12.20
2023-03-04T01:19:03.151Z,11.10
2023-03-04T01:21:31.041Z,10.30
2023-03-04T01:23:58.466Z,10.95
2023-03-04T01:26:25.874Z,9.68
2023-03-04T01:28:53.826Z,12.52
2023-03-04T01:31:21.226Z,9.70
2023-03-04T01:33:48.720Z,10.85
2023-03-04T01:36:16.266Z,13.15
2023-03-04T01:38:44.506Z,10.95
2023-03-04T01:41:13.954Z,9.77
2023-03-04T01:43:41.489Z,10.98
2023-03-04T01:46:13.259Z,10.38
2023-03-04T01:48:41.714Z,11.27
2023-03-04T01:51:15.598Z,12.05
2023-03-04T01:53:44.591Z,14.73
2023-03-04T01:56:16.801Z,16.15
2023-03-04T01:58:44.238Z,14.73
2023-03-04T02:01:13.329Z,13.85
2023-03-04T02:03:41.085Z,13.80
2023-03-04T02:06:08.404Z,11.55
2023-03-04T02:08:35.971Z,12.85
2023-03-04T02:11:03.363Z,10.77
2023-03-04T02:13:31.039Z,10.77
2023-03-04T02:15:58.459Z,11.73
2023-03-04T02:18:25.925Z,10.63
2023-03-04T02:21:03.797Z,11.07
2023-03-04T02:23:40.201Z,11.15
2023-03-04T02:26:25.328Z,11.10
2023-03-04T02:28:56.906Z,14.68
2023-03-04T02:31:34.713Z,13.23
2023-03-04T02:34:06.525Z,11.13
2023-03-04T02:36:35.509Z,10.43
2023-03-04T02:39:12.764Z,10.95
2023-03-04T02:41:40.500Z,12.45
2023-03-04T02:44:24.288Z,11.18
2023-03-04T02:46:53.377Z,11.57
2023-03-04T02:52:00.996Z,11.13
2023-03-04T02:54:29.094Z,11.68
2023-03-04T02:57:00.202Z,13.50
2023-03-04T02:59:28.743Z,13.48
2023-03-04T03:01:57.519Z,15.43
2023-03-04T03:04:26.461Z,13.93
2023-03-04T03:06:54.905Z,11.48
2023-03-04T03:09:22.842Z,12.55
2023-03-04T03:11:50.541Z,13.20
2023-03-04T03:14:18.096Z,13.23
2023-03-04T03:16:45.605Z,13.80
2023-03-04T03:19:12.983Z,13.07
2023-03-04T03:21:41.032Z,16.00
2023-03-04T03:24:09.025Z,13.50
2023-03-04T03:26:36.615Z,16.65
2023-03-04T03:29:04.017Z,12.98
2023-03-04T03:31:31.529Z,15.43
2023-03-04T03:33:58.987Z,15.13
2023-03-04T03:36:27.723Z,14.02
2023-03-04T03:38:55.246Z,18.17
2023-03-04T03:41:22.619Z,15.50
2023-03-04T03:43:49.944Z,19.15
2023-03-04T03:46:17.306Z,15.63
2023-03-04T03:48:44.638Z,12.52
2023-03-04T03:51:11.950Z,16.52
2023-03-04T03:53:39.304Z,12.75
2023-03-04T03:56:07.175Z,14.38
2023-03-04T03:58:34.621Z,13.90
2023-03-04T04:01:02.062Z,15.40
2023-03-04T04:03:30.371Z,16.73
2023-03-04T04:08:25.003Z,13.75
2023-03-04T04:10:52.590Z,13.27
2023-03-04T04:13:19.994Z,13.98
2023-03-04T04:15:47.405Z,15.75
2023-03-04T04:18:14.802Z,13.88
2023-03-04T04:20:42.116Z,15.77
2023-03-04T04:23:09.868Z,16.73
2023-03-04T04:25:37.208Z,18.42
2023-03-04T04:28:04.896Z,17.77
2023-03-04T04:30:32.281Z,15.88
2023-03-04T04:33:02.118Z,17.20
2023-03-04T04:35:29.550Z,16.88
2023-03-04T04:37:57.455Z,17.08
2023-03-04T04:40:24.783Z,17.85
2023-03-04T04:42:52.032Z,17.98
2023-03-04T04:45:19.424Z,18.90
2023-03-04T04:47:46.803Z,17.45
2023-03-04T04:50:14.092Z,19.73
2023-03-04T04:52:41.397Z,16.13
2023-03-04T04:55:09.256Z,18.60
2023-03-04T04:57:36.954Z,14.60
2023-03-04T05:00:06.989Z,20.02
2023-03-04T05:02:37.599Z,18.80
2023-03-04T05:05:06.578Z,19.10
2023-03-04T05:07:35.011Z,17.20
2023-03-04T05:10:02.736Z,16.33
2023-03-04T05:14:58.099Z,21.83
2023-03-04T05:17:25.549Z,17.27
2023-03-04T05:19:52.860Z,17.75
2023-03-04T05:22:20.236Z,19.15
2023-03-04T05:24:47.532Z,19.95
2023-03-04T05:27:14.906Z,17.75
2023-03-04T05:29:45.102Z,19.60
2023-03-04T05:32:12.620Z,20.60
2023-03-04T05:34:40.117Z,17.85
2023-03-04T05:37:07.546Z,22.02
2023-03-04T05:39:34.918Z,17.92
2023-03-04T05:42:02.394Z,20.75
2023-03-04T05:44:29.745Z,17.70
2023-03-04T05:46:57.071Z,21.85
2023-03-04T05:49:24.407Z,20.05
2023-03-04T05:51:51.794Z,20.30
2023-03-04T05:54:19.244Z,20.00
2023-03-04T05:56:46.571Z,18.35
2023-03-04T05:59:14.302Z,16.95
2023-03-04T06:01:41.592Z,16.33
2023-03-04T06:04:08.969Z,15.85
2023-03-04T06:06:36.305Z,19.67
2023-03-04T06:09:04.011Z,18.00
2023-03-04T06:11:31.440Z,13.77
2023-03-04T06:13:58.879Z,14.82
2023-03-04T06:16:26.288Z,14.82
2023-03-04T06:18:53.633Z,15.68
2023-03-04T06:21:21.000Z,15.38
2023-03-04T06:23:48.338Z,20.02
2023-03-04T06:26:15.879Z,17.83
2023-03-04T06:28:43.775Z,15.75
2023-03-04T06:31:11.339Z,16.42
2023-03-04T06:33:38.802Z,15.77
2023-03-04T06:36:06.556Z,14.82
2023-03-04T06:38:34.017Z,17.65
2023-03-04T06:41:10.173Z,14.23
2023-03-04T06:43:37.751Z,19.02
2023-03-04T06:46:06.476Z,15.18
2023-03-04T06:48:34.291Z,14.63
2023-03-04T06:51:09.905Z,15.00
2023-03-04T06:53:38.428Z,16.13
2023-03-04T06:56:07.294Z,11.35
2023-03-04T06:58:35.093Z,16.90
2023-03-04T07:01:19.752Z,16.08
2023-03-04T07:03:48.467Z,15.15
2023-03-04T07:06:18.540Z,18.52
2023-03-04T07:08:47.183Z,15.52
2023-03-04T07:11:15.279Z,14.60
2023-03-04T07:13:43.009Z,14.90
2023-03-04T07:16:13.846Z,14.55
2023-03-04T07:18:41.648Z,18.80
2023-03-04T07:21:09.111Z,14.63
2023-03-04T07:23:37.643Z,14.55
2023-03-04T07:26:05.526Z,14.75
2023-03-04T07:28:33.142Z,15.68
2023-03-04T07:31:28.680Z,14.88
2023-03-04T07:34:07.913Z,12.25
2023-03-04T07:36:37.311Z,14.95
2023-03-04T07:39:05.905Z,15.65
2023-03-04T07:41:36.556Z,18.30
2023-03-04T07:44:05.633Z,14.90
2023-03-04T07:46:33.711Z,14.02
2023-03-04T07:49:01.167Z,12.75
2023-03-04T07:51:28.702Z,13.43
2023-03-04T07:54:01.375Z,14.60
2023-03-04T07:56:32.309Z,14.23
2023-03-04T07:59:01.279Z,16.70
2023-03-04T08:01:32.400Z,19.65
2023-03-04T08:04:00.438Z,13.35
2023-03-04T08:06:28.786Z,19.92
2023-03-04T08:09:05.984Z,13.15
2023-03-04T08:11:35.099Z,12.90
2023-03-04T08:14:03.041Z,14.70
2023-03-04T08:16:33.614Z,12.07
2023-03-04T08:19:03.678Z,14.98
2023-03-04T08:21:31.491Z,15.20
2023-03-04T08:24:02.094Z,15.15
2023-03-04T08:26:34.404Z,14.90
2023-03-04T08:29:05.368Z,16.92
2023-03-04T08:31:33.684Z,17.58
2023-03-04T08:36:29.721Z,16.25
2023-03-04T08:38:57.164Z,16.50
2023-03-04T08:41:27.124Z,15.10
2023-03-04T08:43:54.791Z,16.50
2023-03-04T08:46:22.567Z,19.10
2023-03-04T08:48:50.128Z,17.45
2023-03-04T08:51:18.160Z,17.15
2023-03-04T08:53:46.416Z,19.48
2023-03-04T08:56:14.703Z,16.10
2023-03-04T08:58:41.975Z,16.75
2023-03-04T09:01:12.463Z,16.63
2023-03-04T09:03:40.209Z,17.85
2023-03-04T09:06:09.305Z,15.50
2023-03-04T09:08:36.966Z,16.40
2023-03-04T09:11:04.834Z,18.13
2023-03-04T09:13:32.542Z,14.65
2023-03-04T09:16:00.900Z,13.30
2023-03-04T09:18:29.086Z,16.58
2023-03-04T09:20:56.481Z,18.55
2023-03-04T09:23:24.022Z,13.35
2023-03-04T09:25:51.484Z,18.90
2023-03-04T09:28:19.909Z,16.40
2023-03-04T09:33:15.219Z,18.08
2023-03-04T09:35:43.260Z,16.75
2023-03-04T09:38:10.983Z,12.18
2023-03-04T09:40:50.352Z,14.98
2023-03-04T09:43:27.797Z,18.83
2023-03-04T09:45:59.083Z,16.45
2023-03-04T09:48:30.395Z,17.02
2023-03-04T09:51:06.843Z,19.73
2023-03-04T09:53:46.248Z,21.90
2023-03-04T09:56:14.916Z,16.83
2023-03-04T09:59:02.714Z,16.38
2023-03-04T10:01:47.093Z,18.55
2023-03-04T10:04:40.373Z,17.55
2023-03-04T10:07:22.027Z,19.95
2023-03-04T10:10:05.368Z,19.17
2023-03-04T10:12:38.125Z,18.85
2023-03-04T10:15:17.758Z,19.30
2023-03-04T10:17:51.685Z,14.65
2023-03-04T10:20:25.022Z,19.15
2023-03-04T10:22:57.019Z,15.77
2023-03-04T10:25:28.064Z,14.93
2023-03-04T10:28:06.372Z,13.80
2023-03-04T10:30:53.695Z,15.15
2023-03-04T10:33:23.847Z,16.30
2023-03-04T10:36:00.710Z,14.90
2023-03-04T10:38:34.485Z,17.45
2023-03-04T10:41:02.415Z,12.85
2023-03-04T10:43:30.314Z,16.38
2023-03-04T10:45:58.982Z,17.83
2023-03-04T10:48:30.400Z,16.85
2023-03-04T10:51:20.149Z,13.10
2023-03-04T10:53:51.261Z,15.38
2023-03-04T10:56:46.586Z,13.52
2023-03-04T10:59:40.853Z,12.68
2023-03-04T11:02:15.997Z,16.60
2023-03-04T11:04:49.322Z,12.05
2023-03-04T11:07:16.692Z,17.98
2023-03-04T11:09:45.661Z,13.63
2023-03-04T11:12:17.005Z,17.20
2023-03-04T11:14:51.180Z,19.83
2023-03-04T11:17:27.107Z,13.68
2023-03-04T11:20:00.438Z,14.80
2023-03-04T11:22:30.425Z,15.48
2023-03-04T11:25:06.109Z,11.55
2023-03-04T11:27:45.866Z,13.45
2023-03-04T11:30:31.823Z,17.15
2023-03-04T11:33:11.605Z,14.70
2023-03-04T11:35:52.666Z,13.55
2023-03-04T11:40:59.705Z,15.68
2023-03-04T11:43:36.646Z,17.95
2023-03-04T11:46:05.925Z,14.80
2023-03-04T11:48:52.031Z,14.73
2023-03-04T11:51:49.993Z,15.10
2023-03-04T11:54:22.902Z,17.77
2023-03-04T11:56:53.601Z,15.05
2023-03-04T11:59:39.025Z,14.32
2023-03-04T12:02:12.377Z,17.40
2023-03-04T12:05:17.302Z,17.73
2023-03-04T12:08:07.227Z,15.38
2023-03-04T12:10:40.566Z,15.40
2023-03-04T12:13:44.846Z,15.75
2023-03-04T12:16:42.990Z,20.85
2023-03-04T12:19:10.261Z,17.23
2023-03-04T12:21:52.789Z,16.95
2023-03-04T12:24:29.136Z,18.23
2023-03-04T12:27:21.286Z,24.40
2023-03-04T12:29:57.570Z,15.32
2023-03-04T12:32:54.041Z,18.77
2023-03-04T12:35:52.123Z,19.55
2023-03-04T12:38:47.517Z,17.98
2023-03-04T12:41:18.212Z,17.13
2023-03-04T12:43:54.085Z,16.92
2023-03-04T12:46:36.612Z,16.15
2023-03-04T12:49:12.959Z,15.63
2023-03-04T12:51:49.360Z,14.40
2023-03-04T12:54:35.067Z,17.23
2023-03-04T12:57:11.338Z,19.05
2023-03-04T12:59:46.819Z,17.75
2023-03-04T13:02:29.343Z,14.73
2023-03-04T13:05:28.909Z,15.82
2023-03-04T13:07:56.283Z,18.63
2023-03-04T13:10:24.090Z,20.52
2023-03-04T13:13:02.636Z,15.25
2023-03-04T13:15:35.375Z,14.98
2023-03-04T13:18:15.768Z,17.48
2023-03-04T13:20:43.409Z,15.77
2023-03-04T13:23:10.637Z,18.67
2023-03-04T13:25:47.954Z,16.52
2023-03-04T13:28:33.409Z,15.38
2023-03-04T13:31:11.217Z,15.07
2023-03-04T13:33:38.498Z,12.13
2023-03-04T13:36:26.035Z,15.73
2023-03-04T13:41:47.365Z,15.63
2023-03-04T13:44:57.499Z,14.23
2023-03-04T13:47:42.636Z,19.08
2023-03-04T13:50:30.275Z,12.55
2023-03-04T13:53:19.289Z,15.68
2023-03-04T13:56:10.789Z,15.65
2023-03-04T13:58:38.466Z,14.73
2023-03-04T14:01:07.632Z,14.50
2023-03-04T14:03:35.764Z,18.90
2023-03-04T14:06:12.109Z,16.63
2023-03-04T14:08:39.554Z,15.48
2023-03-04T14:11:16.406Z,11.73
2023-03-04T14:13:44.567Z,12.40
2023-03-04T14:16:12.007Z,13.48
2023-03-04T14:18:40.580Z,13.15
2023-03-04T14:21:07.880Z,15.88
2023-03-04T14:23:36.645Z,11.60
2023-03-04T14:26:17.969Z,12.93
2023-03-04T14:28:50.458Z,11.07
2023-03-04T14:31:21.583Z,14.30
2023-03-04T14:33:56.675Z,12.07
2023-03-04T14:36:24.763Z,15.38
2023-03-04T14:38:56.104Z,15.35
2023-03-04T14:41:38.238Z,14.57
2023-03-04T14:44:39.651Z,17.10
2023-03-04T14:47:21.177Z,20.58
2023-03-04T14:49:49.087Z,15.65
2023-03-04T14:52:33.379Z,16.25
2023-03-04T14:55:22.874Z,14.82
2023-03-04T14:57:58.620Z,16.58
2023-03-04T15:00:30.433Z,13.88
2023-03-04T15:03:00.741Z,15.88
2023-03-04T15:05:31.558Z,16.33
2023-03-04T15:08:02.524Z,15.68
2023-03-04T15:10:38.106Z,18.92
2023-03-04T15:13:08.766Z,22.80
2023-03-04T15:15:45.156Z,15.50
2023-03-04T15:18:26.628Z,17.40
2023-03-04T15:20:58.447Z,19.10
2023-03-04T15:23:28.240Z,17.65
2023-03-04T15:25:58.416Z,12.80
2023-03-04T15:28:27.725Z,15.15
2023-03-04T15:30:55.205Z,15.18
2023-03-04T15:33:22.633Z,16.63
2023-03-04T15:35:55.578Z,16.05
2023-03-04T15:38:23.881Z,14.02
2023-03-04T15:40:54.302Z,18.10
2023-03-04T15:43:23.443Z,17.75
2023-03-04T15:45:52.819Z,15.80
2023-03-04T15:48:21.226Z,20.60
2023-03-04T15:50:57.444Z,16.75
2023-03-04T15:53:33.878Z,18.23
2023-03-04T15:56:02.809Z,17.88
2023-03-04T15:58:33.144Z,15.48
2023-03-04T16:01:02.267Z,17.85
2023-03-04T16:03:29.821Z,15.50
2023-03-04T16:05:57.519Z,15.43
2023-03-04T16:08:25.509Z,18.58
2023-03-04T16:10:53.861Z,17.83
2023-03-04T16:13:23.752Z,16.95
2023-03-04T16:15:51.314Z,14.50
2023-03-04T16:18:19.088Z,16.30
2023-03-04T16:20:49.116Z,17.45
2023-03-04T16:23:20.615Z,18.33
2023-03-04T16:25:49.778Z,17.63
2023-03-04T16:28:17.630Z,15.02
2023-03-04T16:30:45.013Z,15.80
2023-03-04T16:33:12.452Z,19.20
2023-03-04T16:35:40.244Z,15.85
2023-03-04T16:38:21.477Z,16.60
2023-03-04T16:40:49.840Z,18.70
2023-03-04T16:43:17.412Z,17.45
2023-03-04T16:45:45.171Z,17.85
2023-03-04T16:48:12.619Z,17.48
2023-03-04T16:50:40.776Z,16.42
2023-03-04T16:53:29.013Z,17.95
2023-03-04T16:55:58.943Z,17.92
2023-03-04T16:58:26.291Z,15.57
2023-03-04T17:00:53.813Z,19.08
2023-03-04T17:03:21.326Z,17.10
2023-03-04T17:05:48.709Z,16.23
2023-03-04T17:08:16.165Z,16.92
2023-03-04T17:10:43.563Z,15.68
2023-03-04T17:13:11.015Z,17.88
2023-03-04T17:15:38.597Z,20.77
2023-03-04T17:18:06.113Z,19.05
2023-03-04T17:20:33.483Z,22.27
2023-03-04T17:23:01.202Z,19.15
2023-03-04T17:25:28.641Z,15.73
2023-03-04T17:27:56.081Z,21.90
2023-03-04T17:30:23.926Z,20.20
2023-03-04T17:32:51.312Z,17.50
2023-03-04T17:35:18.788Z,20.73
2023-03-04T17:37:46.338Z,20.73
2023-03-04T17:40:14.709Z,16.75
2023-03-04T17:45:11.673Z,18.88
2023-03-04T17:47:39.622Z,19.30
2023-03-04T17:50:08.233Z,16.30
2023-03-04T17:52:35.783Z,16.73
2023-03-04T17:55:03.476Z,17.88
2023-03-04T17:57:30.919Z,19.30
2023-03-04T17:59:58.298Z,18.52
2023-03-04T18:02:25.755Z,17.58
2023-03-04T18:04:53.284Z,18.25
2023-03-04T18:07:20.717Z,20.73
2023-03-04T18:09:48.056Z,18.33
2023-03-04T18:12:15.465Z,18.77
2023-03-04T18:14:42.816Z,20.75
2023-03-04T18:17:10.177Z,18.13
2023-03-04T18:19:37.572Z,19.13
2023-03-04T18:22:04.971Z,18.75
2023-03-04T18:24:32.471Z,20.58
2023-03-04T18:26:59.894Z,17.83
2023-03-04T18:29:28.598Z,20.80
2023-03-04T18:31:55.872Z,18.15
2023-03-04T18:34:23.400Z,22.00
2023-03-04T18:36:52.244Z,18.85
2023-03-04T18:39:19.702Z,20.50
2023-03-04T18:41:47.159Z,19.02
2023-03-04T18:44:14.553Z,18.80
2023-03-04T18:46:45.891Z,18.20
2023-03-04T18:49:15.381Z,15.95
2023-03-04T18:51:42.913Z,22.25
2023-03-04T18:54:11.648Z,17.90
2023-03-04T18:56:43.291Z,20.45
2023-03-04T18:59:31.803Z,22.48
2023-03-04T19:02:02.564Z,17.27
2023-03-04T19:04:30.819Z,16.70
2023-03-04T19:07:00.537Z,19.80
2023-03-04T19:09:28.172Z,18.83
2023-03-04T19:11:55.543Z,20.42
2023-03-04T19:14:22.988Z,17.00
2023-03-04T19:16:50.331Z,22.23
2023-03-04T19:19:17.779Z,21.35
2023-03-04T19:21:45.205Z,21.40
2023-03-04T19:24:12.600Z,18.05
2023-03-04T19:26:40.404Z,19.73
2023-03-04T19:29:08.188Z,21.95
2023-03-04T19:31:41.178Z,18.33
2023-03-04T19:34:09.273Z,22.58
2023-03-04T19:36:36.708Z,23.52
2023-03-04T19:39:04.260Z,21.08
2023-03-04T19:41:31.695Z,23.45
2023-03-04T19:43:59.062Z,20.63
2023-03-04T19:46:27.835Z,20.92
2023-03-04T19:48:55.176Z,20.15
2023-03-04T19:51:26.406Z,23.73
2023-03-04T19:53:54.840Z,22.25
2023-03-04T19:56:23.274Z,18.95
2023-03-04T20:01:22.188Z,18.20
2023-03-04T20:03:49.592Z,21.48
2023-03-04T20:06:17.023Z,16.98
2023-03-04T20:08:44.341Z,19.13
2023-03-04T20:11:14.913Z,19.65
2023-03-04T20:13:42.352Z,17.20
2023-03-04T20:16:12.146Z,22.08
2023-03-04T20:18:40.193Z,20.27
2023-03-04T20:21:08.144Z,16.88
2023-03-04T20:23:36.364Z,16.98
2023-03-04T20:26:04.442Z,19.60
2023-03-04T20:28:32.361Z,18.83
2023-03-04T20:31:19.236Z,18.65
2023-03-04T20:33:49.090Z,18.08
2023-03-04T20:36:17.220Z,20.60
2023-03-04T20:38:44.950Z,17.85
2023-03-04T20:41:13.182Z,17.95
2023-03-04T20:43:40.870Z,15.73
2023-03-04T20:46:27.068Z,21.27
2023-03-04T20:48:59.964Z,17.75
2023-03-04T20:51:28.552Z,21.25
2023-03-04T20:56:25.104Z,16.58
2023-03-04T20:58:54.335Z,16.90
2023-03-04T21:01:23.497Z,21.60
2023-03-04T21:03:50.902Z,15.57
2023-03-04T21:06:19.466Z,20.23
2023-03-04T21:11:15.985Z,20.20
2023-03-04T21:13:44.093Z,22.77
2023-03-04T21:16:16.525Z,18.45
2023-03-04T21:18:44.571Z,19.90
2023-03-04T21:21:14.670Z,20.52
2023-03-04T21:23:42.196Z,20.27
2023-03-04T21:26:09.662Z,17.80
2023-03-04T21:28:37.077Z,20.98
2023-03-04T21:31:04.793Z,19.77
2023-03-04T21:33:36.784Z,27.65
2023-03-04T21:36:04.508Z,20.85
2023-03-04T21:38:31.962Z,20.45
2023-03-04T21:40:59.370Z,20.52
2023-03-04T21:43:26.739Z,19.25
2023-03-04T21:45:58.963Z,21.45
2023-03-04T21:48:26.724Z,18.92
2023-03-04T21:50:54.636Z,18.58
2023-03-04T21:53:23.757Z,19.55
2023-03-04T21:55:53.517Z,21.83
2023-03-04T21:58:21.072Z,19.67
2023-03-04T22:00:49.990Z,16.88
2023-03-04T22:03:21.665Z,18.58
2023-03-04T22:05:49.696Z,21.52
2023-03-04T22:08:20.026Z,19.90
2023-03-04T22:10:48.157Z,20.52
2023-03-04T22:13:16.785Z,21.80
2023-03-04T22:15:45.069Z,19.77
2023-03-04T22:18:14.347Z,22.60
2023-03-04T22:20:44.433Z,25.95
2023-03-04T22:23:12.460Z,22.45
2023-03-04T22:25:41.572Z,25.75
2023-03-04T22:28:09.150Z,19.75
2023-03-04T22:30:36.540Z,19.77
2023-03-04T22:33:04.150Z,22.30
2023-03-04T22:35:32.410Z,23.48
2023-03-04T22:37:59.775Z,20.73
2023-03-04T22:40:27.100Z,24.05
2023-03-04T22:42:54.571Z,24.17
2023-03-04T22:45:21.989Z,25.52
2023-03-04T22:47:52.893Z,25.13
2023-03-04T22:50:21.788Z,24.65
2023-03-04T22:52:49.437Z,23.77
2023-03-04T22:55:19.222Z,27.85
2023-03-04T22:57:46.997Z,24.48
2023-03-04T23:00:21.725Z,27.90
2023-03-04T23:02:50.082Z,24.15
2023-03-04T23:05:21.075Z,25.13
2023-03-04T23:07:49.449Z,23.05
2023-03-04T23:10:23.412Z,25.33
2023-03-04T23:12:51.982Z,31.02
2023-03-04T23:17:47.031Z,23.42
2023-03-04T23:20:18.148Z,24.92
2023-03-04T23:22:46.729Z,25.67
2023-03-04T23:25:14.935Z,27.42
2023-03-04T23:27:42.967Z,21.33
2023-03-04T23:30:15.702Z,21.45
2023-03-04T23:32:44.498Z,21.40
2023-03-04T23:35:12.085Z,22.92
2023-03-04T23:37:39.644Z,23.83
2023-03-04T23:40:08.270Z,20.27
2023-03-04T23:42:36.873Z,23.98
2023-03-04T23:45:05.586Z,20.50
2023-03-04T23:47:32.984Z,26.30
2023-03-04T23:50:00.867Z,23.42
2023-03-04T23:52:28.270Z,26.00
2023-03-04T23:54:55.733Z,21.00
2023-03-04T23:57:23.035Z,21.83
2023-03-04T23:59:50.381Z,22.17
